Time;durP1;ratioP1;P1;durP2;ratioP2;P2;SDS_P1;SDS_P2;PMS_P1;PMS_P2;Temp;Humidity;BMP_temperature;BMP_pressure;BME280_temperature;BME280_humidity;BME280_pressure;Samples;Min_cycle;Max_cycle;Signal;HPM_P1;HPM_P2
2022/11/14 00:00:49;;;;;;;4.50;3.60;;;;;;;;;;4909924;29;20214;-63
2022/11/14 00:03:16;;;;;;;2.90;2.70;;;;;;;;;;4913005;29;20239;-63
2022/11/14 00:05:45;;;;;;;3.33;3.03;;;;;;;;;;4930384;29;20218;-63
2022/11/14 00:08:16;;;;;;;3.77;3.43;;;;;;;;;;4930193;29;20216;-63
2022/11/14 00:10:45;;;;;;;4.60;3.17;;;;;;;;;;4926142;29;20238;-63
2022/11/14 00:13:12;;;;;;;4.33;3.03;;;;;;;;;;4914997;29;20216;-62
2022/11/14 00:15:39;;;;;;;3.37;3.07;;;;;;;;;;4916508;29;20216;-63
2022/11/14 00:18:06;;;;;;;5.47;3.43;;;;;;;;;;4913613;29;20209;-63
2022/11/14 00:20:34;;;;;;;2.63;2.43;;;;;;;;;;4913044;29;20561;-63
2022/11/14 00:23:02;;;;;;;6.97;3.40;;;;;;;;;;4927467;29;20207;-63
2022/11/14 00:25:29;;;;;;;3.73;3.17;;;;;;;;;;4919110;29;20219;-63
2022/11/14 00:27:57;;;;;;;5.10;3.80;;;;;;;;;;4923748;29;20220;-66
2022/11/14 00:30:24;;;;;;;4.07;3.60;;;;;;;;;;4917555;29;20301;-64
2022/11/14 00:32:51;;;;;;;7.67;4.80;;;;;;;;;;4912853;29;20209;-63
2022/11/14 00:35:18;;;;;;;6.87;4.27;;;;;;;;;;4923647;29;20224;-64
2022/11/14 00:37:45;;;;;;;6.17;5.03;;;;;;;;;;4931532;29;20217;-63
2022/11/14 00:40:14;;;;;;;8.87;4.63;;;;;;;;;;4922400;29;20313;-63
2022/11/14 00:42:41;;;;;;;11.10;5.80;;;;;;;;;;4912822;29;20205;-63
2022/11/14 00:45:08;;;;;;;12.80;5.83;;;;;;;;;;4912982;29;20611;-63
2022/11/14 00:47:35;;;;;;;6.53;5.00;;;;;;;;;;4916215;29;20208;-63
2022/11/14 00:50:03;;;;;;;7.50;4.70;;;;;;;;;;4923067;29;20230;-63
2022/11/14 00:52:30;;;;;;;9.03;5.17;;;;;;;;;;4929150;29;20225;-63
2022/11/14 00:54:57;;;;;;;7.97;4.83;;;;;;;;;;4923260;29;20232;-63
2022/11/14 00:57:25;;;;;;;10.83;5.33;;;;;;;;;;4923331;29;20217;-63
2022/11/14 00:59:54;;;;;;;12.67;6.00;;;;;;;;;;4915940;29;20233;-63
2022/11/14 01:02:21;;;;;;;8.47;5.23;;;;;;;;;;4913007;29;20209;-63
2022/11/14 01:04:48;;;;;;;6.67;4.63;;;;;;;;;;4914542;29;20214;-63
2022/11/14 01:07:15;;;;;;;9.10;6.07;;;;;;;;;;4912446;29;20218;-63
2022/11/14 01:09:42;;;;;;;6.33;4.83;;;;;;;;;;4917506;29;20602;-63
2022/11/14 01:12:09;;;;;;;7.13;4.77;;;;;;;;;;4922715;29;20231;-63
2022/11/14 01:14:39;;;;;;;8.27;5.33;;;;;;;;;;4918008;29;20217;-64
2022/11/14 01:17:06;;;;;;;12.23;5.90;;;;;;;;;;4930096;29;20591;-63
2022/11/14 01:19:33;;;;;;;13.87;6.10;;;;;;;;;;4924854;29;20684;-63
2022/11/14 01:22:00;;;;;;;10.80;5.53;;;;;;;;;;4931150;29;20567;-63
2022/11/14 01:24:28;;;;;;;7.93;5.33;;;;;;;;;;4920659;29;20243;-63
2022/11/14 01:26:55;;;;;;;10.23;5.47;;;;;;;;;;4913387;29;20309;-63
2022/11/14 01:29:22;;;;;;;12.73;6.77;;;;;;;;;;4923628;29;20219;-63
2022/11/14 01:31:51;;;;;;;14.23;5.80;;;;;;;;;;4929645;29;20221;-63
2022/11/14 01:34:18;;;;;;;10.10;5.47;;;;;;;;;;4933280;29;20214;-63
2022/11/14 01:36:45;;;;;;;14.97;6.97;;;;;;;;;;4934760;29;20649;-63
2022/11/14 01:39:12;;;;;;;12.03;6.33;;;;;;;;;;4929621;29;20222;-64
2022/11/14 01:41:39;;;;;;;11.10;6.50;;;;;;;;;;4922371;29;20210;-63
2022/11/14 01:44:12;;;;;;;9.10;5.47;;;;;;;;;;4930761;29;20576;-63
2022/11/14 01:46:41;;;;;;;8.90;5.37;;;;;;;;;;4915784;29;20415;-63
2022/11/14 01:49:14;;;;;;;8.33;4.97;;;;;;;;;;4918834;29;20682;-63
2022/11/14 01:51:43;;;;;;;8.33;4.87;;;;;;;;;;4932199;29;20211;-64
2022/11/14 01:54:12;;;;;;;11.40;5.90;;;;;;;;;;4919179;29;20242;-64
2022/11/14 01:56:42;;;;;;;13.97;5.43;;;;;;;;;;4915987;29;20224;-64
2022/11/14 01:59:10;;;;;;;12.33;5.73;;;;;;;;;;4918882;29;20258;-64
2022/11/14 02:01:41;;;;;;;14.80;5.50;;;;;;;;;;4927043;29;20208;-64
2022/11/14 02:04:08;;;;;;;9.27;4.77;;;;;;;;;;4916816;29;20222;-64
2022/11/14 02:06:37;;;;;;;8.93;5.13;;;;;;;;;;4934253;29;20218;-63
2022/11/14 02:09:05;;;;;;;6.73;4.83;;;;;;;;;;4932500;29;20216;-64
2022/11/14 02:11:33;;;;;;;10.87;5.17;;;;;;;;;;4916299;29;20245;-63
2022/11/14 02:14:00;;;;;;;10.33;5.50;;;;;;;;;;4930315;29;20213;-64
2022/11/14 02:16:28;;;;;;;6.93;3.27;;;;;;;;;;4932613;29;20210;-64
2022/11/14 02:18:55;;;;;;;7.17;4.23;;;;;;;;;;4914306;29;20227;-63
2022/11/14 02:21:23;;;;;;;8.50;4.87;;;;;;;;;;4916333;29;20211;-64
2022/11/14 02:23:50;;;;;;;10.03;4.67;;;;;;;;;;4930257;29;20214;-63
2022/11/14 02:26:18;;;;;;;9.87;5.00;;;;;;;;;;4929014;29;20199;-64
2022/11/14 02:28:46;;;;;;;9.93;4.67;;;;;;;;;;4916339;29;20210;-63
2022/11/14 02:31:13;;;;;;;6.63;5.07;;;;;;;;;;4928327;29;20237;-64
2022/11/14 02:33:40;;;;;;;6.97;4.77;;;;;;;;;;4931645;29;20208;-63
2022/11/14 02:36:08;;;;;;;9.07;5.27;;;;;;;;;;4933403;29;20210;-64
2022/11/14 02:38:36;;;;;;;7.53;5.00;;;;;;;;;;4919437;29;20219;-63
2022/11/14 02:41:03;;;;;;;6.97;4.93;;;;;;;;;;4916002;29;20201;-63
2022/11/14 02:43:30;;;;;;;7.53;4.57;;;;;;;;;;4927920;29;20900;-64
2022/11/14 02:45:57;;;;;;;8.80;5.00;;;;;;;;;;4932516;29;20216;-63
2022/11/14 02:48:24;;;;;;;8.83;4.83;;;;;;;;;;4919310;29;20599;-63
2022/11/14 02:50:51;;;;;;;7.03;3.90;;;;;;;;;;4915676;29;20776;-63
2022/11/14 02:53:18;;;;;;;10.30;5.43;;;;;;;;;;4925110;29;20208;-63
2022/11/14 02:55:47;;;;;;;7.97;4.63;;;;;;;;;;4914537;29;20242;-63
2022/11/14 02:58:14;;;;;;;8.93;5.47;;;;;;;;;;4923488;29;20753;-64
2022/11/14 03:00:41;;;;;;;14.07;4.90;;;;;;;;;;4920902;29;20429;-64
2022/11/14 03:03:08;;;;;;;4.13;3.53;;;;;;;;;;4915643;29;20207;-64
2022/11/14 03:05:35;;;;;;;7.77;5.00;;;;;;;;;;4914491;29;20227;-64
2022/11/14 03:08:02;;;;;;;7.80;5.07;;;;;;;;;;4920793;29;20220;-64
2022/11/14 03:10:29;;;;;;;7.93;5.13;;;;;;;;;;4929526;29;20249;-63
2022/11/14 03:12:58;;;;;;;6.67;4.77;;;;;;;;;;4926022;29;20204;-63
2022/11/14 03:15:25;;;;;;;9.23;4.60;;;;;;;;;;4932487;29;20242;-63
2022/11/14 03:17:52;;;;;;;10.33;4.87;;;;;;;;;;4917458;29;20212;-63
2022/11/14 03:20:20;;;;;;;8.80;5.50;;;;;;;;;;4916415;29;20219;-63
2022/11/14 03:22:47;;;;;;;9.13;4.87;;;;;;;;;;4920220;29;20241;-64
2022/11/14 03:25:14;;;;;;;6.87;4.27;;;;;;;;;;4927236;29;20215;-63
2022/11/14 03:27:42;;;;;;;10.37;5.07;;;;;;;;;;4930577;29;20204;-63
2022/11/14 03:30:11;;;;;;;7.40;4.73;;;;;;;;;;4931273;29;20237;-63
2022/11/14 03:32:38;;;;;;;7.00;4.47;;;;;;;;;;4914301;29;20968;-64
2022/11/14 03:35:05;;;;;;;8.53;5.00;;;;;;;;;;4927706;29;20214;-63
2022/11/14 03:37:32;;;;;;;8.40;5.13;;;;;;;;;;4926943;29;20209;-64
2022/11/14 03:39:59;;;;;;;8.50;3.97;;;;;;;;;;4921254;29;20211;-63
2022/11/14 03:42:27;;;;;;;9.27;5.30;;;;;;;;;;4924376;29;20205;-63
2022/11/14 03:44:54;;;;;;;7.03;4.20;;;;;;;;;;4923860;29;20218;-64
2022/11/14 03:47:22;;;;;;;7.67;4.37;;;;;;;;;;4916314;29;20670;-63
2022/11/14 03:49:49;;;;;;;7.60;4.43;;;;;;;;;;4918138;29;20223;-63
2022/11/14 03:52:16;;;;;;;11.83;5.03;;;;;;;;;;4914827;29;20211;-63
2022/11/14 03:54:43;;;;;;;4.80;4.20;;;;;;;;;;4931188;29;20234;-63
2022/11/14 03:57:10;;;;;;;9.90;5.17;;;;;;;;;;4930986;29;20212;-63
2022/11/14 03:59:37;;;;;;;7.53;4.70;;;;;;;;;;4913719;29;20245;-64
2022/11/14 04:02:04;;;;;;;10.73;4.00;;;;;;;;;;4913579;29;20233;-64
2022/11/14 04:04:33;;;;;;;4.77;3.97;;;;;;;;;;4930769;29;20235;-63
2022/11/14 04:07:00;;;;;;;7.90;4.57;;;;;;;;;;4928186;29;20698;-63
2022/11/14 04:09:27;;;;;;;7.80;4.50;;;;;;;;;;4915917;29;20218;-64
2022/11/14 04:11:54;;;;;;;6.80;4.10;;;;;;;;;;4915124;29;20236;-63
2022/11/14 04:14:21;;;;;;;6.40;4.13;;;;;;;;;;4926501;29;20236;-64
2022/11/14 04:16:48;;;;;;;5.37;4.23;;;;;;;;;;4930849;29;20200;-64
2022/11/14 04:19:15;;;;;;;7.30;4.63;;;;;;;;;;4924746;29;20705;-64
2022/11/14 04:21:44;;;;;;;7.97;4.53;;;;;;;;;;4930357;29;20203;-64
2022/11/14 04:24:11;;;;;;;5.13;4.03;;;;;;;;;;4926423;29;20719;-64
2022/11/14 04:26:38;;;;;;;6.73;4.43;;;;;;;;;;4914218;29;20209;-64
2022/11/14 04:29:05;;;;;;;4.77;3.77;;;;;;;;;;4921868;29;20216;-63
2022/11/14 04:31:32;;;;;;;6.53;4.80;;;;;;;;;;4913193;29;20247;-63
2022/11/14 04:33:59;;;;;;;5.90;3.90;;;;;;;;;;4927822;29;20220;-64
2022/11/14 04:36:26;;;;;;;5.60;4.73;;;;;;;;;;4931420;29;20208;-64
2022/11/14 04:38:54;;;;;;;6.93;4.30;;;;;;;;;;4917708;29;20211;-63
2022/11/14 04:41:22;;;;;;;7.63;3.93;;;;;;;;;;4913990;29;20207;-63
2022/11/14 04:43:49;;;;;;;11.47;5.27;;;;;;;;;;4922637;29;20218;-64
2022/11/14 04:46:16;;;;;;;6.73;4.60;;;;;;;;;;4912904;29;20219;-63
2022/11/14 04:48:43;;;;;;;4.27;3.53;;;;;;;;;;4919841;29;20224;-64
2022/11/14 04:51:10;;;;;;;5.57;3.60;;;;;;;;;;4920692;29;20227;-63
2022/11/14 04:53:37;;;;;;;6.07;3.77;;;;;;;;;;4931496;29;20586;-63
2022/11/14 04:56:06;;;;;;;5.40;4.13;;;;;;;;;;4926367;29;20684;-64
2022/11/14 04:58:33;;;;;;;6.20;4.47;;;;;;;;;;4906610;29;20799;-64
2022/11/14 05:01:02;;;;;;;3.80;3.33;;;;;;;;;;4916692;29;20216;-63
2022/11/14 05:03:29;;;;;;;7.47;4.30;;;;;;;;;;4919097;29;20245;-63
2022/11/14 05:06:00;;;;;;;4.87;4.10;;;;;;;;;;4914531;29;20223;-63
2022/11/14 05:08:27;;;;;;;6.87;3.97;;;;;;;;;;4931548;29;20212;-63
2022/11/14 05:10:54;;;;;;;6.17;4.43;;;;;;;;;;4922060;29;20227;-64
2022/11/14 05:13:23;;;;;;;7.47;4.47;;;;;;;;;;4912497;29;20220;-63
2022/11/14 05:15:50;;;;;;;5.13;3.77;;;;;;;;;;4915758;29;20636;-63
2022/11/14 05:18:17;;;;;;;4.43;3.17;;;;;;;;;;4913568;29;20235;-64
2022/11/14 05:20:44;;;;;;;6.57;3.87;;;;;;;;;;4913537;29;20197;-64
2022/11/14 05:23:14;;;;;;;4.20;3.77;;;;;;;;;;4912434;29;20302;-64
2022/11/14 05:25:41;;;;;;;4.63;3.30;;;;;;;;;;4914829;29;20216;-63
2022/11/14 05:28:08;;;;;;;4.53;3.23;;;;;;;;;;4928179;29;20673;-64
2022/11/14 05:30:37;;;;;;;5.90;4.03;;;;;;;;;;4925786;29;20595;-63
2022/11/14 05:33:04;;;;;;;5.07;4.00;;;;;;;;;;4910641;29;20224;-64
2022/11/14 05:35:31;;;;;;;3.87;3.47;;;;;;;;;;4916878;29;20207;-64
2022/11/14 05:38:01;;;;;;;4.50;3.80;;;;;;;;;;4931179;29;20216;-64
2022/11/14 05:40:28;;;;;;;4.77;3.90;;;;;;;;;;4928168;29;20216;-64
2022/11/14 05:42:55;;;;;;;4.27;3.23;;;;;;;;;;4912320;29;20210;-64
2022/11/14 05:45:22;;;;;;;4.83;3.67;;;;;;;;;;4914401;29;20240;-64
2022/11/14 05:47:52;;;;;;;3.50;3.20;;;;;;;;;;4931075;29;20222;-64
2022/11/14 05:50:19;;;;;;;6.03;3.43;;;;;;;;;;4913324;29;20319;-64
2022/11/14 05:52:46;;;;;;;6.07;3.87;;;;;;;;;;4931044;29;20235;-63
2022/11/14 05:55:13;;;;;;;5.37;3.87;;;;;;;;;;4928101;29;20258;-63
2022/11/14 05:57:41;;;;;;;5.40;3.60;;;;;;;;;;4929613;29;20210;-63
2022/11/14 06:00:09;;;;;;;5.87;3.87;;;;;;;;;;4920286;29;20214;-64
2022/11/14 06:02:36;;;;;;;6.20;4.30;;;;;;;;;;4913257;29;20299;-65
2022/11/14 06:05:05;;;;;;;5.00;3.40;;;;;;;;;;4913228;29;20204;-64
2022/11/14 06:07:32;;;;;;;4.73;3.73;;;;;;;;;;4914066;29;20213;-64
2022/11/14 06:09:59;;;;;;;4.30;3.17;;;;;;;;;;4912185;29;20218;-64
2022/11/14 06:12:26;;;;;;;5.87;3.67;;;;;;;;;;4913125;29;20432;-62
2022/11/14 06:14:53;;;;;;;4.57;3.67;;;;;;;;;;4930766;29;20218;-61
2022/11/14 06:17:20;;;;;;;3.83;3.53;;;;;;;;;;4929017;29;20208;-63
2022/11/14 06:19:47;;;;;;;4.37;3.97;;;;;;;;;;4918268;29;20231;-61
2022/11/14 06:22:15;;;;;;;7.20;3.67;;;;;;;;;;4917073;29;20205;-62
2022/11/14 06:24:42;;;;;;;3.53;3.20;;;;;;;;;;4916102;29;20216;-61
2022/11/14 06:27:09;;;;;;;3.80;2.80;;;;;;;;;;4923899;29;20548;-61
2022/11/14 06:29:37;;;;;;;8.87;3.70;;;;;;;;;;4917439;29;20238;-61
2022/11/14 06:32:04;;;;;;;4.70;4.23;;;;;;;;;;4915374;29;20782;-61
2022/11/14 06:34:31;;;;;;;6.33;3.93;;;;;;;;;;4916094;29;20206;-61
2022/11/14 06:36:58;;;;;;;3.63;3.17;;;;;;;;;;4914107;29;20681;-62
2022/11/14 06:39:26;;;;;;;3.93;3.40;;;;;;;;;;4925765;29;20215;-61
2022/11/14 06:41:53;;;;;;;4.63;3.90;;;;;;;;;;4933120;29;20226;-62
2022/11/14 06:44:20;;;;;;;3.40;3.10;;;;;;;;;;4931470;29;20236;-63
2022/11/14 06:46:48;;;;;;;4.27;3.87;;;;;;;;;;4932952;29;20438;-63
2022/11/14 06:49:15;;;;;;;5.07;3.80;;;;;;;;;;4922283;29;20208;-63
2022/11/14 06:51:42;;;;;;;4.27;3.73;;;;;;;;;;4914009;29;20243;-62
2022/11/14 06:54:11;;;;;;;5.27;4.47;;;;;;;;;;4914866;29;20233;-62
2022/11/14 06:56:40;;;;;;;4.30;3.87;;;;;;;;;;4913860;29;20224;-63
2022/11/14 06:59:07;;;;;;;4.60;4.00;;;;;;;;;;4921957;29;20237;-63
2022/11/14 07:01:34;;;;;;;3.67;3.07;;;;;;;;;;4932934;29;20213;-63
2022/11/14 07:04:01;;;;;;;5.77;4.33;;;;;;;;;;4931115;29;20216;-63
2022/11/14 07:06:29;;;;;;;9.87;5.47;;;;;;;;;;4932859;29;20222;-63
2022/11/14 07:08:56;;;;;;;6.33;5.53;;;;;;;;;;4926645;29;20213;-63
2022/11/14 07:11:26;;;;;;;6.27;4.77;;;;;;;;;;4914279;29;20237;-63
2022/11/14 07:13:55;;;;;;;5.30;4.27;;;;;;;;;;4915363;29;20652;-62
2022/11/14 07:16:24;;;;;;;5.17;4.23;;;;;;;;;;4914268;29;20240;-63
2022/11/14 07:18:51;;;;;;;6.20;4.07;;;;;;;;;;4914975;29;20208;-62
2022/11/14 07:21:18;;;;;;;5.70;4.43;;;;;;;;;;4913866;29;20221;-61
2022/11/14 07:23:45;;;;;;;3.87;3.53;;;;;;;;;;4921315;29;20218;-62
2022/11/14 07:26:12;;;;;;;5.97;4.27;;;;;;;;;;4924228;29;20209;-62
2022/11/14 07:28:40;;;;;;;8.77;4.80;;;;;;;;;;4906411;29;20209;-63
2022/11/14 07:31:11;;;;;;;4.93;4.40;;;;;;;;;;4904886;29;20205;-61
2022/11/14 07:33:38;;;;;;;7.13;4.70;;;;;;;;;;4904415;29;20243;-61
2022/11/14 07:36:06;;;;;;;6.33;4.77;;;;;;;;;;4913662;29;20208;-61
2022/11/14 07:38:33;;;;;;;9.57;5.03;;;;;;;;;;4913228;29;20222;-62
2022/11/14 07:41:00;;;;;;;6.97;4.53;;;;;;;;;;4913584;29;20218;-62
2022/11/14 07:43:28;;;;;;;13.57;5.10;;;;;;;;;;4913505;29;20211;-61
2022/11/14 07:45:59;;;;;;;5.40;4.07;;;;;;;;;;4913707;29;20219;-62
2022/11/14 07:48:27;;;;;;;10.10;7.13;;;;;;;;;;4912661;29;20242;-61
2022/11/14 07:50:54;;;;;;;10.20;6.50;;;;;;;;;;4912827;29;20233;-61
2022/11/14 07:53:21;;;;;;;11.00;6.00;;;;;;;;;;4912284;29;20230;-61
2022/11/14 07:55:48;;;;;;;8.07;5.00;;;;;;;;;;4912698;29;20243;-62
2022/11/14 07:58:15;;;;;;;7.00;4.70;;;;;;;;;;4912523;29;20244;-62
2022/11/14 08:00:42;;;;;;;6.43;5.17;;;;;;;;;;4912446;29;20218;-62
2022/11/14 08:03:10;;;;;;;6.90;5.17;;;;;;;;;;4912450;29;20632;-62
2022/11/14 08:05:38;;;;;;;9.80;5.47;;;;;;;;;;4912237;29;20230;-63
2022/11/14 08:08:06;;;;;;;12.60;7.13;;;;;;;;;;4912508;29;20224;-63
2022/11/14 08:10:33;;;;;;;10.80;5.70;;;;;;;;;;4912549;29;20223;-62
2022/11/14 08:13:00;;;;;;;8.53;5.43;;;;;;;;;;4912312;29;20249;-62
2022/11/14 08:15:28;;;;;;;9.80;5.93;;;;;;;;;;4912186;29;20211;-62
2022/11/14 08:17:58;;;;;;;9.97;4.77;;;;;;;;;;4912257;29;20244;-62
2022/11/14 08:20:25;;;;;;;12.97;5.10;;;;;;;;;;4912086;29;20934;-62
2022/11/14 08:22:54;;;;;;;10.23;6.60;;;;;;;;;;4912166;29;20254;-62
2022/11/14 08:25:21;;;;;;;5.67;4.50;;;;;;;;;;4912266;29;20215;-63
2022/11/14 08:27:48;;;;;;;8.17;5.80;;;;;;;;;;4912096;29;20223;-62
2022/11/14 08:30:15;;;;;;;11.57;6.60;;;;;;;;;;4912248;29;20679;-62
2022/11/14 08:32:42;;;;;;;10.13;5.93;;;;;;;;;;4911976;29;20236;-62
2022/11/14 08:35:09;;;;;;;10.03;6.90;;;;;;;;;;4912187;29;20219;-63
2022/11/14 08:37:36;;;;;;;16.97;6.63;;;;;;;;;;4911632;29;20216;-61
2022/11/14 08:40:05;;;;;;;7.07;4.13;;;;;;;;;;4912124;29;20219;-60
2022/11/14 08:42:32;;;;;;;12.47;6.93;;;;;;;;;;4911668;29;20200;-58
2022/11/14 08:44:59;;;;;;;13.73;6.93;;;;;;;;;;4911846;29;20223;-61
2022/11/14 08:47:26;;;;;;;17.03;7.27;;;;;;;;;;4911918;29;20242;-61
2022/11/14 08:49:53;;;;;;;12.37;6.77;;;;;;;;;;4910603;29;20227;-65
2022/11/14 08:52:21;;;;;;;7.53;4.93;;;;;;;;;;4911991;29;20258;-64
2022/11/14 08:54:48;;;;;;;14.80;6.27;;;;;;;;;;4920163;29;20981;-66
2022/11/14 08:57:17;;;;;;;12.17;6.87;;;;;;;;;;4930843;29;20208;-63
2022/11/14 08:59:44;;;;;;;9.93;6.17;;;;;;;;;;4914193;29;20249;-64
2022/11/14 09:02:12;;;;;;;13.07;6.57;;;;;;;;;;4915010;29;20211;-63
2022/11/14 09:04:39;;;;;;;13.37;6.57;;;;;;;;;;4923429;29;20211;-63
2022/11/14 09:07:06;;;;;;;13.97;6.40;;;;;;;;;;4916807;29;20210;-62
2022/11/14 09:09:33;;;;;;;11.50;5.57;;;;;;;;;;4912949;29;20214;-60
2022/11/14 09:12:00;;;;;;;10.27;6.30;;;;;;;;;;4915845;29;20236;-62
2022/11/14 09:14:29;;;;;;;15.73;7.57;;;;;;;;;;4917314;29;20806;-64
2022/11/14 09:16:56;;;;;;;15.00;7.27;;;;;;;;;;4907834;29;20420;-62
2022/11/14 09:19:23;;;;;;;12.40;6.77;;;;;;;;;;4919395;29;20222;-62
2022/11/14 09:21:50;;;;;;;13.63;6.80;;;;;;;;;;4925007;29;20204;-62
2022/11/14 09:24:17;;;;;;;11.50;6.83;;;;;;;;;;4913732;29;20216;-65
2022/11/14 09:26:44;;;;;;;20.43;9.63;;;;;;;;;;4912636;29;20217;-63
2022/11/14 09:29:11;;;;;;;17.00;7.07;;;;;;;;;;4913302;29;20212;-63
2022/11/14 09:31:40;;;;;;;11.40;6.73;;;;;;;;;;4908613;29;20220;-65
2022/11/14 09:34:07;;;;;;;11.97;4.93;;;;;;;;;;4921652;29;20716;-65
2022/11/14 09:36:34;;;;;;;13.57;6.13;;;;;;;;;;4911481;29;20231;-62
2022/11/14 09:39:01;;;;;;;11.40;6.07;;;;;;;;;;4911207;29;20208;-65
2022/11/14 09:41:37;;;;;;;17.27;7.30;;;;;;;;;;4921119;29;20442;-66
2022/11/14 09:44:15;;;;;;;17.97;7.67;;;;;;;;;;4930660;29;20250;-66
2022/11/14 09:46:44;;;;;;;12.60;6.43;;;;;;;;;;4910932;29;20212;-63
2022/11/14 09:49:16;;;;;;;11.97;6.73;;;;;;;;;;4911592;29;20706;-66
2022/11/14 09:51:46;;;;;;;10.33;5.27;;;;;;;;;;4922069;29;20217;-65
2022/11/14 09:54:18;;;;;;;10.63;6.10;;;;;;;;;;4912161;29;20232;-64
2022/11/14 09:56:46;;;;;;;11.30;6.17;;;;;;;;;;4928852;29;20223;-65
2022/11/14 09:59:13;;;;;;;9.77;5.90;;;;;;;;;;4912492;29;20247;-63
2022/11/14 10:01:46;;;;;;;8.93;5.70;;;;;;;;;;4910497;29;20208;-65
2022/11/14 10:04:20;;;;;;;13.77;6.60;;;;;;;;;;4914550;29;20220;-64
2022/11/14 10:06:51;;;;;;;10.83;5.47;;;;;;;;;;4914875;29;20223;-62
2022/11/14 10:09:34;;;;;;;8.40;5.10;;;;;;;;;;4914763;29;20642;-65
2022/11/14 10:12:05;;;;;;;15.27;6.07;;;;;;;;;;4914678;29;20378;-63
2022/11/14 10:14:42;;;;;;;6.23;5.03;;;;;;;;;;4910639;29;20397;-63
2022/11/14 10:17:15;;;;;;;11.07;4.13;;;;;;;;;;4895959;29;20220;-63
2022/11/14 10:19:47;;;;;;;7.67;5.30;;;;;;;;;;4915065;29;21011;-64
2022/11/14 10:22:19;;;;;;;8.67;4.73;;;;;;;;;;4932831;29;20481;-64
2022/11/14 10:25:03;;;;;;;6.40;5.30;;;;;;;;;;4934030;29;20215;-64
2022/11/14 10:27:32;;;;;;;7.10;4.67;;;;;;;;;;4921259;29;20707;-64
2022/11/14 10:30:04;;;;;;;8.20;4.87;;;;;;;;;;4915794;29;20227;-64
2022/11/14 10:32:40;;;;;;;9.50;5.40;;;;;;;;;;4923028;29;20729;-64
2022/11/14 10:35:13;;;;;;;6.13;4.30;;;;;;;;;;4933641;29;20216;-65
2022/11/14 10:37:43;;;;;;;8.00;4.50;;;;;;;;;;4931891;29;20223;-64
2022/11/14 10:40:16;;;;;;;10.57;5.20;;;;;;;;;;4926649;29;20319;-67
2022/11/14 10:42:44;;;;;;;6.63;4.37;;;;;;;;;;4914449;29;20213;-72
2022/11/14 10:45:17;;;;;;;6.90;4.53;;;;;;;;;;4915520;29;20208;-64
2022/11/14 10:47:49;;;;;;;7.60;4.53;;;;;;;;;;4924456;29;20207;-64
2022/11/14 10:50:19;;;;;;;6.33;4.50;;;;;;;;;;4916182;29;20699;-64
2022/11/14 10:52:46;;;;;;;6.00;4.03;;;;;;;;;;4914256;29;20708;-64
2022/11/14 10:55:14;;;;;;;8.53;4.43;;;;;;;;;;4912382;29;20252;-64
2022/11/14 10:57:42;;;;;;;8.20;4.13;;;;;;;;;;4913821;29;20212;-64
2022/11/14 11:00:12;;;;;;;6.43;4.60;;;;;;;;;;4913764;29;20525;-65
2022/11/14 11:02:49;;;;;;;6.83;4.77;;;;;;;;;;4913487;29;20220;-64
2022/11/14 11:05:19;;;;;;;6.43;4.10;;;;;;;;;;4913905;29;20223;-64
2022/11/14 11:13:32;;;;;;;4.13;3.17;;;;;;;;;;4913902;29;20251;-65
2022/11/14 11:16:00;;;;;;;6.93;4.97;;;;;;;;;;4913554;29;20251;-64
2022/11/14 11:18:28;;;;;;;6.10;4.13;;;;;;;;;;4913837;29;20215;-65
2022/11/14 11:21:07;;;;;;;3.93;3.10;;;;;;;;;;4913769;29;20216;-65
2022/11/14 11:23:35;;;;;;;8.77;5.13;;;;;;;;;;4913480;29;20223;-65
2022/11/14 11:26:04;;;;;;;9.27;5.13;;;;;;;;;;4913750;29;20219;-65
2022/11/14 11:28:32;;;;;;;6.37;3.97;;;;;;;;;;4913649;29;20215;-65
2022/11/14 11:31:00;;;;;;;7.63;4.10;;;;;;;;;;4913366;29;20718;-65
2022/11/14 11:33:28;;;;;;;7.80;4.50;;;;;;;;;;4913203;29;20292;-65
2022/11/14 11:35:56;;;;;;;7.37;3.87;;;;;;;;;;4913405;29;20310;-64
2022/11/14 11:38:26;;;;;;;9.27;4.33;;;;;;;;;;4913077;29;20248;-64
2022/11/14 11:40:55;;;;;;;4.60;4.20;;;;;;;;;;4913281;29;20684;-65
2022/11/14 11:43:27;;;;;;;6.97;4.00;;;;;;;;;;4913184;29;20219;-65
2022/11/14 11:45:55;;;;;;;7.33;4.17;;;;;;;;;;4913223;29;20239;-65
2022/11/14 11:48:23;;;;;;;5.17;4.37;;;;;;;;;;4912526;29;20276;-65
2022/11/14 11:50:50;;;;;;;5.50;3.80;;;;;;;;;;4912100;29;20209;-67
2022/11/14 11:53:19;;;;;;;4.73;3.50;;;;;;;;;;4911876;29;20240;-68
2022/11/14 11:55:51;;;;;;;6.03;3.63;;;;;;;;;;4911710;29;20601;-68
2022/11/14 11:58:22;;;;;;;6.07;3.90;;;;;;;;;;4911607;29;20244;-67
2022/11/14 12:00:53;;;;;;;4.03;3.63;;;;;;;;;;4912245;29;20234;-68
2022/11/14 12:03:21;;;;;;;4.20;3.80;;;;;;;;;;4911534;29;20208;-67
2022/11/14 12:05:50;;;;;;;3.57;3.27;;;;;;;;;;4911888;29;20227;-67
2022/11/14 12:08:20;;;;;;;4.57;3.83;;;;;;;;;;4911369;29;20208;-67
2022/11/14 12:10:49;;;;;;;6.07;3.07;;;;;;;;;;4911586;29;20213;-67
2022/11/14 12:13:31;;;;;;;6.07;3.40;;;;;;;;;;4911174;29;20703;-67
2022/11/14 12:16:02;;;;;;;3.93;2.80;;;;;;;;;;4908870;29;20216;-67
2022/11/14 12:18:42;;;;;;;3.93;3.30;;;;;;;;;;4910927;29;20672;-67
2022/11/14 12:21:12;;;;;;;4.70;3.23;;;;;;;;;;4910888;29;20215;-67
2022/11/14 12:23:55;;;;;;;4.90;3.60;;;;;;;;;;4910418;29;20211;-67
2022/11/14 12:26:33;;;;;;;3.70;2.80;;;;;;;;;;4911215;29;20610;-67
2022/11/14 12:29:11;;;;;;;3.60;2.97;;;;;;;;;;4911238;29;20227;-65
2022/11/14 12:31:39;;;;;;;3.30;3.00;;;;;;;;;;4911121;29;20628;-64
2022/11/14 12:34:14;;;;;;;4.67;3.33;;;;;;;;;;4908853;29;20691;-64
2022/11/14 12:36:43;;;;;;;3.23;2.93;;;;;;;;;;4911005;29;20591;-65
2022/11/14 12:39:21;;;;;;;4.10;3.57;;;;;;;;;;4910884;29;20227;-65
2022/11/14 12:41:49;;;;;;;6.80;3.87;;;;;;;;;;4910781;29;20243;-64
2022/11/14 12:44:31;;;;;;;4.73;3.60;;;;;;;;;;4910761;29;20213;-64
2022/11/14 12:47:18;;;;;;;5.47;3.80;;;;;;;;;;4910619;29;20216;-64
2022/11/14 12:50:01;;;;;;;6.00;3.70;;;;;;;;;;4910617;29;20220;-65
2022/11/14 12:52:45;;;;;;;4.57;3.83;;;;;;;;;;4910512;29;20235;-64
2022/11/14 12:55:26;;;;;;;4.97;3.43;;;;;;;;;;4911274;29;20225;-64
2022/11/14 12:58:02;;;;;;;4.73;3.30;;;;;;;;;;4911340;29;20217;-64
2022/11/14 13:00:29;;;;;;;3.77;3.37;;;;;;;;;;4911384;29;20223;-65
2022/11/14 13:03:19;;;;;;;3.70;3.37;;;;;;;;;;4911476;29;20702;-65
2022/11/14 13:05:54;;;;;;;4.57;3.37;;;;;;;;;;4911624;29;20215;-73
2022/11/14 13:08:40;;;;;;;3.90;3.60;;;;;;;;;;4911027;29;20212;-65
2022/11/14 13:21:44;;;;;;;5.87;3.27;;;;;;;;;;4908088;29;20215;-66
2022/11/14 13:22:39;;;;;;;5.93;3.30;;;;;;;;;;4881948;29;20671;-66
2022/11/14 13:25:17;;;;;;;5.87;3.10;;;;;;;;;;4911754;29;20216;-66
2022/11/14 13:27:44;;;;;;;5.17;3.60;;;;;;;;;;4911428;29;20219;-63
2022/11/14 13:30:13;;;;;;;4.47;3.23;;;;;;;;;;4913967;29;20216;-63
2022/11/14 13:32:53;;;;;;;5.50;3.40;;;;;;;;;;4914855;29;20226;-63
2022/11/14 13:35:24;;;;;;;5.50;3.63;;;;;;;;;;4915437;29;20219;-63
2022/11/14 13:38:01;;;;;;;5.83;4.20;;;;;;;;;;4915167;29;20216;-63
2022/11/14 13:40:32;;;;;;;6.10;4.20;;;;;;;;;;4915409;29;20220;-63
2022/11/14 13:43:03;;;;;;;5.63;3.57;;;;;;;;;;4914835;29;20212;-63
2022/11/14 13:45:45;;;;;;;3.93;3.27;;;;;;;;;;4914620;29;20227;-64
2022/11/14 13:48:23;;;;;;;5.03;3.43;;;;;;;;;;4914637;29;20212;-64
2022/11/14 13:50:51;;;;;;;4.43;3.40;;;;;;;;;;4914627;29;20250;-65
2022/11/14 13:53:22;;;;;;;3.60;3.37;;;;;;;;;;4914509;29;20247;-64
2022/11/14 13:55:57;;;;;;;4.27;2.90;;;;;;;;;;4914423;29;20240;-65
2022/11/14 13:58:39;;;;;;;4.00;3.00;;;;;;;;;;4914438;29;20247;-64
2022/11/14 14:01:13;;;;;;;3.90;2.90;;;;;;;;;;4911884;29;20217;-64
2022/11/14 14:03:49;;;;;;;3.00;2.63;;;;;;;;;;4914307;29;20216;-64
2022/11/14 14:06:22;;;;;;;4.17;2.60;;;;;;;;;;4914227;29;20235;-66
2022/11/14 14:08:56;;;;;;;2.77;2.57;;;;;;;;;;4914099;29;20699;-66
2022/11/14 14:11:32;;;;;;;2.90;2.60;;;;;;;;;;4914371;29;20228;-64
2022/11/14 14:14:04;;;;;;;3.17;2.83;;;;;;;;;;4914096;29;20338;-64
2022/11/14 14:16:35;;;;;;;3.57;2.90;;;;;;;;;;4914205;29;20209;-64
2022/11/14 14:19:06;;;;;;;3.60;3.03;;;;;;;;;;4913993;29;20706;-64
2022/11/14 14:21:38;;;;;;;3.43;3.13;;;;;;;;;;4914041;29;20632;-64
2022/11/14 14:24:11;;;;;;;2.73;2.53;;;;;;;;;;4913775;29;20248;-64
2022/11/14 14:26:43;;;;;;;4.93;3.17;;;;;;;;;;4912585;29;20209;-63
2022/11/14 14:29:18;;;;;;;4.37;3.03;;;;;;;;;;4912932;29;20239;-63
2022/11/14 14:31:46;;;;;;;3.40;3.00;;;;;;;;;;4913538;29;20699;-64
2022/11/14 14:34:21;;;;;;;3.20;2.70;;;;;;;;;;4912746;29;20600;-64
2022/11/14 14:36:51;;;;;;;3.30;2.50;;;;;;;;;;4914137;29;20683;-64
2022/11/14 14:39:20;;;;;;;3.63;3.17;;;;;;;;;;4908793;29;20288;-64
2022/11/14 14:41:48;;;;;;;4.33;3.40;;;;;;;;;;4896939;29;21642;-64
2022/11/14 14:44:19;;;;;;;5.20;3.73;;;;;;;;;;4912927;29;20216;-63
2022/11/14 14:46:48;;;;;;;4.40;3.40;;;;;;;;;;4913041;29;20217;-64
2022/11/14 14:49:19;;;;;;;7.17;3.93;;;;;;;;;;4912822;29;20216;-64
2022/11/14 14:51:46;;;;;;;4.27;3.50;;;;;;;;;;4913560;29;20216;-65
2022/11/14 14:54:19;;;;;;;3.43;3.07;;;;;;;;;;4912342;29;20228;-64
2022/11/14 14:56:53;;;;;;;4.93;3.50;;;;;;;;;;4909461;29;20219;-63
2022/11/14 14:59:22;;;;;;;5.50;4.30;;;;;;;;;;4912892;29;20388;-64
2022/11/14 15:01:51;;;;;;;5.53;4.10;;;;;;;;;;4921148;29;20645;-63
2022/11/14 15:04:18;;;;;;;4.33;3.13;;;;;;;;;;4929626;29;20529;-64
2022/11/14 15:06:46;;;;;;;4.53;3.63;;;;;;;;;;4912993;29;20220;-64